createdAt,value
2023-05-20T00:04:01.996Z,45.30
2023-05-20T00:09:07.076Z,44.78
2023-05-20T00:14:10.880Z,45.39
2023-05-20T00:19:14.376Z,45.29
2023-05-20T00:24:19.496Z,45.67
2023-05-20T00:29:23.572Z,45.67
2023-05-20T00:34:27.084Z,45.74
2023-05-20T00:39:32.169Z,46.10
2023-05-20T00:44:35.744Z,46.42
2023-05-20T00:49:39.327Z,46.44
2023-05-20T00:54:44.503Z,46.56
2023-05-20T00:59:48.348Z,47.09
2023-05-20T01:04:52.158Z,47.42
2023-05-20T01:09:57.205Z,47.60
2023-05-20T01:15:06.967Z,47.56
2023-05-20T01:20:12.652Z,47.71
2023-05-20T01:25:17.754Z,47.68
2023-05-20T01:30:22.187Z,47.94
2023-05-20T01:35:26.177Z,47.99
2023-05-20T01:40:31.716Z,48.37
2023-05-20T01:45:35.548Z,48.59
2023-05-20T01:50:39.388Z,48.38
2023-05-20T01:55:44.376Z,48.91
2023-05-20T02:00:47.908Z,48.98
2023-05-20T02:05:51.623Z,49.26
2023-05-20T02:10:56.568Z,49.58
2023-05-20T02:16:00.082Z,49.47
2023-05-20T02:21:04.621Z,49.39
2023-05-20T02:26:09.662Z,49.95
2023-05-20T02:31:13.148Z,49.72
2023-05-20T02:36:17.440Z,49.91
2023-05-20T02:41:22.907Z,50.14
2023-05-20T02:46:26.444Z,49.84
2023-05-20T02:51:32.092Z,50.19
2023-05-20T02:56:37.117Z,50.51
2023-05-20T03:01:40.732Z,50.31
2023-05-20T03:06:44.853Z,50.61
2023-05-20T03:11:49.992Z,50.52
2023-05-20T03:16:55.595Z,50.63
2023-05-20T03:21:59.261Z,50.60
2023-05-20T03:27:04.196Z,50.66
2023-05-20T03:32:10.131Z,50.69
2023-05-20T03:37:14.212Z,50.88
2023-05-20T03:42:19.169Z,50.31
2023-05-20T03:47:22.736Z,50.96
2023-05-20T03:52:26.808Z,50.53
2023-05-20T03:57:32.576Z,50.24
2023-05-20T04:02:36.483Z,50.19
2023-05-20T04:07:40.152Z,49.99
2023-05-20T04:12:45.156Z,50.22
2023-05-20T04:17:50.680Z,50.10
2023-05-20T04:22:55.265Z,49.58
2023-05-20T04:28:01.124Z,49.61
2023-05-20T04:33:04.711Z,49.51
2023-05-20T04:38:08.618Z,48.69
2023-05-20T04:43:15.670Z,48.82
2023-05-20T04:48:19.240Z,48.33
2023-05-20T04:53:23.530Z,48.12
2023-05-20T04:58:29.772Z,47.71
2023-05-20T05:03:35.177Z,47.83
2023-05-20T05:08:40.020Z,47.48
2023-05-20T05:13:44.970Z,47.04
2023-05-20T05:18:48.597Z,46.97
2023-05-20T05:23:52.137Z,46.94
2023-05-20T05:28:57.429Z,46.41
2023-05-20T05:34:00.978Z,45.53
2023-05-20T05:39:04.641Z,44.70
2023-05-20T05:44:09.567Z,44.07
2023-05-20T05:49:13.128Z,43.72
2023-05-20T05:54:16.794Z,43.02
2023-05-20T05:59:21.958Z,42.08
2023-05-20T06:04:25.486Z,39.83
2023-05-20T06:09:29.061Z,36.67
2023-05-20T06:14:34.105Z,32.80
2023-05-20T06:19:37.823Z,29.56
2023-05-20T06:24:41.486Z,27.20
2023-05-20T06:29:46.437Z,26.07
2023-05-20T06:34:50.115Z,22.71
2023-05-20T06:39:55.319Z,21.19
2023-05-20T06:45:00.379Z,20.21
2023-05-20T06:50:03.924Z,19.34
2023-05-20T06:55:08.245Z,19.74
2023-05-20T07:00:15.021Z,18.93
2023-05-20T07:05:18.675Z,18.60
2023-05-20T07:10:22.214Z,18.49
2023-05-20T07:15:26.840Z,20.47
2023-05-20T07:20:30.306Z,20.68
2023-05-20T07:25:33.846Z,21.02
2023-05-20T07:30:38.977Z,19.93
2023-05-20T07:35:42.510Z,18.26
2023-05-20T07:40:45.698Z,17.70
2023-05-20T07:45:51.021Z,16.16
2023-05-20T07:50:57.306Z,15.71
2023-05-20T07:56:01.004Z,14.27
2023-05-20T08:01:05.981Z,14.17
2023-05-20T08:06:09.547Z,16.34
2023-05-20T08:11:13.169Z,18.95
2023-05-20T08:16:18.192Z,19.01
2023-05-20T08:21:21.894Z,19.85
2023-05-20T08:26:25.250Z,22.83
2023-05-20T08:31:30.322Z,24.21
2023-05-20T08:36:33.901Z,23.85
2023-05-20T08:41:38.381Z,25.40
2023-05-20T08:46:44.245Z,27.00
2023-05-20T08:51:48.478Z,27.46
2023-05-20T08:56:54.221Z,28.00
2023-05-20T09:01:59.185Z,27.69
2023-05-20T09:07:02.764Z,28.17
2023-05-20T09:12:06.939Z,28.05
2023-05-20T09:17:12.545Z,28.75
2023-05-20T09:22:16.139Z,28.42
2023-05-20T09:27:20.348Z,28.00
2023-05-20T09:32:28.430Z,28.18
2023-05-20T09:37:32.728Z,27.20
2023-05-20T09:42:39.367Z,27.83
2023-05-20T09:47:45.209Z,29.34
2023-05-20T09:52:50.144Z,29.66
2023-05-20T09:57:55.688Z,29.94
2023-05-20T10:03:01.387Z,30.48
2023-05-20T10:08:29.465Z,30.69
2023-05-20T10:13:59.244Z,30.30
2023-05-20T10:19:13.639Z,30.15
2023-05-20T10:24:17.271Z,29.48
2023-05-20T10:29:22.838Z,28.63
2023-05-20T10:34:27.836Z,27.94
2023-05-20T10:39:34.717Z,27.78
2023-05-20T10:44:44.934Z,27.62
2023-05-20T10:49:50.070Z,28.50
2023-05-20T10:54:57.764Z,29.50
2023-05-20T11:00:02.176Z,30.94
2023-05-20T11:05:12.877Z,31.74
2023-05-20T11:10:16.501Z,31.92
2023-05-20T11:15:20.027Z,31.17
2023-05-20T11:20:25.900Z,31.06
2023-05-20T11:25:29.588Z,30.54
2023-05-20T11:30:33.837Z,30.87
2023-05-20T11:35:38.939Z,31.47
2023-05-20T11:40:51.130Z,31.78
2023-05-20T11:45:57.746Z,32.14
2023-05-20T11:51:03.115Z,31.69
2023-05-20T11:56:07.099Z,33.33
2023-05-20T12:01:21.663Z,35.38
2023-05-20T12:06:28.023Z,38.59
2023-05-20T12:11:32.490Z,40.91
2023-05-20T12:16:36.932Z,42.89
2023-05-20T12:21:41.680Z,41.86
2023-05-20T12:26:45.178Z,42.17
2023-05-20T12:31:48.797Z,41.62
2023-05-20T12:36:54.081Z,41.53
2023-05-20T12:41:57.693Z,39.53
2023-05-20T12:47:01.377Z,38.34
2023-05-20T12:52:11.820Z,37.37
2023-05-20T12:57:23.060Z,36.26
2023-05-20T13:02:26.734Z,35.95
2023-05-20T13:07:32.268Z,35.23
2023-05-20T13:12:35.946Z,35.09
2023-05-20T13:17:39.558Z,34.13
2023-05-20T13:22:44.653Z,33.69
2023-05-20T13:27:48.197Z,33.97
2023-05-20T13:32:51.936Z,33.83
2023-05-20T13:37:56.993Z,33.66
2023-05-20T13:43:00.547Z,33.45
2023-05-20T13:48:04.255Z,33.72
2023-05-20T13:53:12.649Z,33.54
2023-05-20T13:58:16.303Z,33.22
2023-05-20T14:03:20.009Z,32.37
2023-05-20T14:08:25.097Z,32.40
2023-05-20T14:13:28.615Z,31.95
2023-05-20T14:18:32.360Z,32.14
2023-05-20T14:23:37.406Z,32.12
2023-05-20T14:28:41.099Z,32.36
2023-05-20T14:33:44.558Z,31.65
2023-05-20T14:38:49.826Z,32.05
2023-05-20T14:43:53.439Z,32.04
2023-05-20T14:48:57.154Z,32.50
2023-05-20T14:54:02.283Z,33.03
2023-05-20T14:59:05.861Z,33.14
2023-05-20T15:04:09.376Z,33.01
2023-05-20T15:09:14.376Z,33.06
2023-05-20T15:14:18.034Z,33.16
2023-05-20T15:19:21.566Z,32.61
2023-05-20T15:24:26.646Z,32.45
2023-05-20T15:29:30.249Z,32.53
2023-05-20T15:34:35.247Z,32.81
2023-05-20T15:39:40.184Z,33.03
2023-05-20T15:44:43.756Z,33.16
2023-05-20T15:49:47.298Z,33.52
2023-05-20T15:54:52.289Z,33.86
2023-05-20T15:59:56.064Z,34.11
2023-05-20T16:04:59.693Z,34.38
2023-05-20T16:10:04.889Z,34.62
2023-05-20T16:15:10.976Z,34.58
2023-05-20T16:20:14.744Z,35.05
2023-05-20T16:25:19.659Z,35.17
2023-05-20T16:30:23.277Z,35.91
2023-05-20T16:35:26.824Z,36.88
2023-05-20T16:40:32.127Z,37.14
2023-05-20T16:45:36.610Z,38.35
2023-05-20T16:50:40.254Z,40.10
2023-05-20T16:55:45.204Z,40.91
2023-05-20T17:00:48.837Z,41.62
2023-05-20T17:05:52.473Z,42.26
2023-05-20T17:10:57.724Z,42.38
2023-05-20T17:16:01.457Z,42.76
2023-05-20T17:21:05.042Z,43.77
2023-05-20T17:26:10.127Z,44.27
2023-05-20T17:31:13.870Z,45.90
2023-05-20T17:36:17.713Z,46.11
2023-05-20T17:41:23.262Z,45.95
2023-05-20T17:46:26.878Z,46.57
2023-05-20T17:51:31.964Z,48.02
2023-05-20T17:56:37.010Z,47.99
2023-05-20T18:01:41.808Z,48.74
2023-05-20T18:06:45.412Z,48.24
2023-05-20T18:11:50.395Z,49.45
2023-05-20T18:16:54.700Z,49.58
2023-05-20T18:21:58.760Z,51.23
2023-05-20T18:27:03.806Z,52.82
2023-05-20T18:32:08.604Z,54.41
2023-05-20T18:37:12.152Z,55.31
2023-05-20T18:42:18.664Z,55.18
2023-05-20T18:47:22.459Z,54.89
2023-05-20T18:52:26.148Z,54.77
2023-05-20T18:57:31.977Z,54.72
2023-05-20T19:02:35.578Z,54.72
2023-05-20T19:07:39.615Z,54.72
2023-05-20T19:12:44.842Z,55.16
2023-05-20T19:17:48.392Z,55.16
2023-05-20T19:22:52.494Z,54.56
2023-05-20T19:27:57.455Z,54.17
2023-05-20T19:33:02.437Z,54.43
2023-05-20T19:38:07.062Z,55.41
2023-05-20T19:43:12.052Z,55.48
2023-05-20T19:48:15.551Z,56.26
2023-05-20T19:53:20.964Z,57.03
2023-05-20T19:58:25.947Z,56.61
2023-05-20T20:03:29.512Z,57.45
2023-05-20T20:08:33.138Z,57.07
2023-05-20T20:13:38.068Z,57.14
2023-05-20T20:18:41.603Z,57.87
2023-05-20T20:23:45.170Z,58.12
2023-05-20T20:28:50.109Z,58.39
2023-05-20T20:33:53.685Z,58.55
2023-05-20T20:38:57.196Z,58.24
2023-05-20T20:44:03.806Z,58.70
2023-05-20T20:49:07.455Z,58.96
2023-05-20T20:54:11.006Z,59.26
2023-05-20T20:59:16.117Z,58.90
2023-05-20T21:04:20.476Z,58.78
2023-05-20T21:09:24.355Z,59.28
2023-05-20T21:14:29.361Z,59.67
2023-05-20T21:19:32.948Z,59.98
2023-05-20T21:24:36.500Z,59.79
2023-05-20T21:29:41.398Z,60.31
2023-05-20T21:34:44.926Z,60.44
2023-05-20T21:39:48.510Z,60.27
2023-05-20T21:44:53.412Z,60.26
2023-05-20T21:49:56.931Z,60.38
2023-05-20T21:55:00.422Z,60.32
2023-05-20T22:00:10.203Z,60.70
2023-05-20T22:05:13.903Z,60.56
2023-05-20T22:10:17.933Z,60.70
2023-05-20T22:15:23.324Z,61.82
2023-05-20T22:20:28.799Z,61.24
2023-05-20T22:25:32.461Z,61.80
2023-05-20T22:30:38.483Z,61.85
2023-05-20T22:35:41.994Z,61.92
2023-05-20T22:40:45.508Z,62.64
2023-05-20T22:45:50.734Z,62.23
2023-05-20T22:50:56.210Z,62.18
2023-05-20T22:56:00.120Z,62.23
2023-05-20T23:01:05.128Z,62.20
2023-05-20T23:06:08.689Z,62.27
2023-05-20T23:11:12.276Z,62.17
2023-05-20T23:16:17.319Z,61.93
2023-05-20T23:21:20.940Z,62.19
2023-05-20T23:26:28.976Z,62.05
2023-05-20T23:31:34.008Z,61.62
2023-05-20T23:36:37.564Z,61.92
2023-05-20T23:41:41.091Z,61.17
2023-05-20T23:46:46.184Z,61.50
2023-05-20T23:51:49.789Z,61.40
2023-05-20T23:56:53.354Z,61.84
